Claremont, North Carolina
Current Conditions -  °F | °C
As of 5:35 AM on Wednesday 22 Oct 2014 (Local Time) from KSVH Reporting Station
Clear Clear  
Wind Chill: 39°   Ceiling: Unl
Heat Index: 39°   Visibility: 10mi
Dew Point: 37°   Wind: 3mph
Humidity: 93%   Direction: 260°W
Pressure: 30.01"   Gusts: NA
Location:  35.71°N, 81.15°W
Report Text: KSVH 220935Z AUTO 26003KT 10SM CLR 04/03 A3001 RMK AO2 T00380027
Loading
Personal Weather Stations






























Interactive Weather Map
Tropical Storm Tracking
New forecast layout! Learn more

10-Day Weather Forecast

Advertisements
Track Severe Weather on mobile